Time;durP1;ratioP1;P1;durP2;ratioP2;P2;SDS_P1;SDS_P2;PMS_P1;PMS_P2;Temp;Humidity;BMP_temperature;BMP_pressure;BME280_temperature;BME280_humidity;BME280_pressure;Samples;Min_cycle;Max_cycle;Signal;HPM_P1;HPM_P2
2022/09/12 00:00:42;;;;;;;2.90;1.45;;;21.00;55.20;;;;;;5066342;28;45344;-80
2022/09/12 00:03:09;;;;;;;3.70;1.75;;;21.00;55.50;;;;;;5066398;28;45203;-81
2022/09/12 00:05:41;;;;;;;2.00;1.60;;;20.90;55.30;;;;;;5066464;28;45295;-81
2022/09/12 00:08:07;;;;;;;1.95;1.60;;;20.90;55.50;;;;;;5065397;28;46330;-80
2022/09/12 00:10:37;;;;;;;1.98;1.50;;;20.90;55.60;;;;;;5066067;28;45261;-80
2022/09/12 00:13:05;;;;;;;1.52;1.42;;;20.90;55.60;;;;;;5066311;28;45304;-79
2022/09/12 00:15:32;;;;;;;1.88;1.17;;;20.80;55.80;;;;;;5066098;28;45262;-79
2022/09/12 00:17:59;;;;;;;1.52;1.42;;;20.80;55.90;;;;;;5065887;28;45181;-80
2022/09/12 00:20:26;;;;;;;2.50;1.40;;;20.80;55.80;;;;;;5065021;28;45389;-80
2022/09/12 00:22:53;;;;;;;1.70;1.40;;;20.80;55.80;;;;;;5066378;28;45187;-80
2022/09/12 00:25:20;;;;;;;1.30;1.20;;;20.80;55.80;;;;;;5065633;28;45431;-80
2022/09/12 00:27:46;;;;;;;1.52;1.33;;;20.80;55.90;;;;;;5065776;28;46325;-80
2022/09/12 00:30:15;;;;;;;2.03;1.30;;;20.70;55.60;;;;;;5065945;28;45235;-81
2022/09/12 00:32:41;;;;;;;1.35;1.25;;;20.70;55.70;;;;;;5066069;28;45329;-81
2022/09/12 00:35:08;;;;;;;1.67;1.30;;;20.70;55.70;;;;;;5066055;28;45400;-78
2022/09/12 00:37:35;;;;;;;1.45;1.13;;;20.70;55.70;;;;;;5065658;28;46403;-79
2022/09/12 00:40:02;;;;;;;1.80;1.40;;;20.70;55.60;;;;;;5065516;28;45240;-80
2022/09/12 00:42:29;;;;;;;4.68;1.50;;;20.60;55.90;;;;;;5064877;28;45212;-81
2022/09/12 00:44:56;;;;;;;1.75;1.30;;;20.60;55.90;;;;;;5066014;28;45242;-79
2022/09/12 00:47:26;;;;;;;1.38;1.25;;;20.60;55.80;;;;;;5065743;28;45419;-80
2022/09/12 00:49:57;;;;;;;1.50;1.30;;;20.60;55.70;;;;;;5068199;28;45286;-79
2022/09/12 00:52:26;;;;;;;1.52;1.35;;;20.60;55.90;;;;;;5069310;28;45353;-80
2022/09/12 00:54:55;;;;;;;2.58;1.30;;;20.60;55.90;;;;;;5069516;28;45295;-79
2022/09/12 00:57:23;;;;;;;1.50;1.40;;;20.50;56.00;;;;;;5068804;28;46525;-80
2022/09/12 00:59:55;;;;;;;2.03;1.40;;;20.50;56.00;;;;;;5069077;28;45263;-79
2022/09/12 01:02:22;;;;;;;1.70;1.25;;;20.50;55.90;;;;;;5069179;28;45233;-79
2022/09/12 01:04:50;;;;;;;2.75;1.35;;;20.50;56.00;;;;;;5069093;28;45287;-79
2022/09/12 01:07:17;;;;;;;1.23;1.10;;;20.50;56.10;;;;;;5068863;28;45307;-79
2022/09/12 01:09:44;;;;;;;1.40;1.30;;;20.40;56.10;;;;;;5068050;28;45388;-80
2022/09/12 01:12:11;;;;;;;2.25;1.15;;;20.40;56.10;;;;;;5068331;28;45304;-79
2022/09/12 01:14:39;;;;;;;1.30;1.20;;;20.40;56.10;;;;;;5068353;28;45386;-81
2022/09/12 01:17:05;;;;;;;1.25;1.20;;;20.40;56.00;;;;;;5068570;28;46728;-81
2022/09/12 01:19:48;;;;;;;1.58;1.23;;;20.40;56.00;;;;;;5068516;28;45278;-81
2022/09/12 01:22:26;;;;;;;0.98;0.98;;;20.40;56.20;;;;;;5068804;28;45301;-80
2022/09/12 01:24:54;;;;;;;1.15;1.05;;;20.40;56.10;;;;;;5068747;28;45188;-79
2022/09/12 01:27:49;;;;;;;4.75;1.23;;;20.30;56.10;;;;;;5068568;28;45537;-80
2022/09/12 01:30:24;;;;;;;1.67;1.10;;;20.30;56.10;;;;;;5032210;28;45350;-80
2022/09/12 01:33:00;;;;;;;1.75;1.20;;;20.40;56.00;;;;;;5065239;28;45392;-81
2022/09/12 01:35:30;;;;;;;2.00;1.02;;;20.30;56.00;;;;;;5067523;28;45277;-81
2022/09/12 01:38:03;;;;;;;2.08;1.10;;;20.30;56.00;;;;;;5067633;28;45444;-82
2022/09/12 01:40:33;;;;;;;1.40;1.10;;;20.30;56.10;;;;;;5068151;28;45239;-82
2022/09/12 01:43:04;;;;;;;1.65;1.08;;;20.30;56.10;;;;;;5068613;28;45141;-82
2022/09/12 01:45:33;;;;;;;1.00;0.93;;;20.30;56.00;;;;;;5068047;28;45471;-82
2022/09/12 01:48:02;;;;;;;1.30;1.20;;;20.30;55.90;;;;;;5068144;28;46378;-81
2022/09/12 01:50:31;;;;;;;1.70;1.30;;;20.30;55.90;;;;;;5068231;28;45446;-80
2022/09/12 01:52:59;;;;;;;1.33;0.95;;;20.30;55.80;;;;;;5068408;28;45217;-81
2022/09/12 01:55:27;;;;;;;1.45;1.10;;;20.30;55.90;;;;;;5068429;28;45303;-81
2022/09/12 01:57:56;;;;;;;1.20;1.10;;;20.20;55.80;;;;;;5068142;28;45353;-81
2022/09/12 02:00:23;;;;;;;1.33;1.20;;;20.20;55.70;;;;;;5066739;28;45250;-82
2022/09/12 02:02:52;;;;;;;1.58;1.42;;;20.20;56.10;;;;;;5068321;28;45223;-81
2022/09/12 02:05:22;;;;;;;1.33;1.23;;;20.20;56.20;;;;;;5068338;28;45279;-81
2022/09/12 02:07:51;;;;;;;1.85;1.20;;;20.20;56.10;;;;;;5067807;28;46583;-81
2022/09/12 02:10:19;;;;;;;1.65;1.25;;;20.20;56.40;;;;;;5067948;28;45294;-81
2022/09/12 02:12:47;;;;;;;1.50;1.30;;;20.20;56.60;;;;;;5068140;28;45241;-82
2022/09/12 02:15:15;;;;;;;2.42;1.50;;;20.10;56.80;;;;;;5067489;28;45349;-81
2022/09/12 02:17:43;;;;;;;1.63;1.50;;;20.10;57.10;;;;;;5067599;28;46397;-81
2022/09/12 02:20:14;;;;;;;1.55;1.45;;;20.10;56.80;;;;;;5067702;28;45327;-82
2022/09/12 02:22:41;;;;;;;2.85;1.42;;;20.10;57.00;;;;;;5067932;28;45287;-83
2022/09/12 02:25:09;;;;;;;2.15;1.20;;;20.10;57.00;;;;;;5067893;28;45518;-81
2022/09/12 02:27:38;;;;;;;1.35;1.25;;;20.10;56.80;;;;;;5067730;28;46600;-81
2022/09/12 02:30:05;;;;;;;1.45;1.35;;;20.10;56.90;;;;;;5067632;28;45182;-81
2022/09/12 02:32:34;;;;;;;2.13;1.50;;;20.10;57.10;;;;;;5066284;28;45345;-82
2022/09/12 02:35:05;;;;;;;3.58;1.55;;;20.10;57.20;;;;;;5067415;28;45234;-82
2022/09/12 02:37:40;;;;;;;1.40;1.30;;;20.00;56.80;;;;;;5067397;28;45375;-82
2022/09/12 02:40:08;;;;;;;1.50;1.40;;;20.00;57.10;;;;;;5065712;28;45305;-83
2022/09/12 02:42:35;;;;;;;1.23;1.23;;;20.00;56.80;;;;;;5065879;28;45379;-82
2022/09/12 02:45:02;;;;;;;1.60;1.30;;;20.00;56.70;;;;;;5067662;28;45258;-82
2022/09/12 02:47:31;;;;;;;1.67;1.25;;;20.00;56.60;;;;;;5067078;28;48341;-78
2022/09/12 02:49:58;;;;;;;2.05;1.42;;;19.90;56.50;;;;;;5067327;28;45316;-82
2022/09/12 02:52:25;;;;;;;1.33;1.23;;;19.90;56.70;;;;;;5067296;28;45360;-82
2022/09/12 02:54:53;;;;;;;2.33;1.48;;;19.90;56.90;;;;;;5067696;28;45245;-83
2022/09/12 02:57:20;;;;;;;1.00;1.00;;;19.90;56.80;;;;;;5066818;28;45177;-82
2022/09/12 02:59:47;;;;;;;1.15;1.05;;;19.80;57.30;;;;;;5067041;28;45327;-80
2022/09/12 03:02:22;;;;;;;2.60;1.10;;;19.80;56.60;;;;;;5067435;28;45269;-81
2022/09/12 03:05:02;;;;;;;1.83;1.17;;;19.80;56.50;;;;;;5067340;28;45280;-82
2022/09/12 03:07:39;;;;;;;2.65;1.40;;;19.80;56.80;;;;;;5066965;28;46612;-80
2022/09/12 03:10:10;;;;;;;1.30;1.13;;;19.70;56.70;;;;;;5066957;28;45282;-78
2022/09/12 03:12:45;;;;;;;1.15;1.10;;;19.70;56.90;;;;;;5066186;28;45248;-77
2022/09/12 03:15:22;;;;;;;0.93;0.90;;;19.70;56.80;;;;;;5066926;28;45185;-80
2022/09/12 03:18:01;;;;;;;1.05;0.95;;;19.70;57.00;;;;;;5066716;28;46672;-79
2022/09/12 03:20:33;;;;;;;2.10;1.20;;;19.70;57.00;;;;;;5066667;28;45325;-79
2022/09/12 03:23:02;;;;;;;1.38;1.20;;;19.60;57.00;;;;;;5064807;28;45246;-79
2022/09/12 03:25:32;;;;;;;1.88;1.00;;;19.60;56.90;;;;;;5062644;28;45478;-78
2022/09/12 03:28:04;;;;;;;3.40;0.98;;;19.60;56.90;;;;;;5066460;28;45200;-77
2022/09/12 03:30:31;;;;;;;0.98;0.90;;;19.60;57.00;;;;;;5066713;28;45434;-80
2022/09/12 03:32:58;;;;;;;1.17;1.08;;;19.60;56.90;;;;;;5066726;28;45294;-78
2022/09/12 03:35:25;;;;;;;1.25;1.00;;;19.60;57.00;;;;;;5066776;28;45442;-80
2022/09/12 03:37:52;;;;;;;1.00;0.90;;;19.60;56.90;;;;;;5066409;28;45309;-80
2022/09/12 03:40:19;;;;;;;0.90;0.90;;;19.50;57.00;;;;;;5066480;28;45386;-78
2022/09/12 03:42:47;;;;;;;1.58;0.95;;;19.50;57.00;;;;;;5065301;28;45440;-79
2022/09/12 03:45:15;;;;;;;1.40;1.10;;;19.50;56.90;;;;;;5066582;28;45163;-79
2022/09/12 03:47:42;;;;;;;1.48;0.90;;;19.50;56.90;;;;;;5066214;28;45473;-79
2022/09/12 03:50:11;;;;;;;2.70;1.00;;;19.50;56.90;;;;;;5066411;28;45234;-78
2022/09/12 03:52:38;;;;;;;1.52;1.20;;;19.50;57.00;;;;;;5066675;28;45202;-80
2022/09/12 03:55:06;;;;;;;1.00;1.00;;;19.50;56.60;;;;;;5064808;28;45183;-79
2022/09/12 03:57:33;;;;;;;0.80;0.80;;;19.50;56.60;;;;;;5066086;28;46388;-79
2022/09/12 04:00:01;;;;;;;1.25;1.15;;;19.50;56.50;;;;;;5066501;28;45334;-78
2022/09/12 04:02:28;;;;;;;1.67;1.23;;;19.50;56.90;;;;;;5066522;28;45278;-79
2022/09/12 04:04:55;;;;;;;1.10;1.10;;;19.40;56.90;;;;;;5066170;28;45241;-79
2022/09/12 04:07:22;;;;;;;1.95;1.10;;;19.40;56.90;;;;;;5066298;28;45304;-81
2022/09/12 04:09:49;;;;;;;2.05;1.20;;;19.40;56.80;;;;;;5066191;28;45312;-79
2022/09/12 04:12:16;;;;;;;2.67;1.58;;;19.40;56.90;;;;;;5066255;28;45284;-79
2022/09/12 04:14:43;;;;;;;2.03;1.35;;;19.30;57.20;;;;;;5066525;28;45209;-80
2022/09/12 04:17:11;;;;;;;1.77;1.17;;;19.30;57.20;;;;;;5065644;28;45814;-78
2022/09/12 04:19:38;;;;;;;1.40;1.30;;;19.30;57.30;;;;;;5066746;28;45346;-78
2022/09/12 04:22:04;;;;;;;1.40;1.30;;;19.30;57.30;;;;;;5066412;28;45352;-78
2022/09/12 04:24:31;;;;;;;1.85;1.52;;;19.30;57.30;;;;;;5069953;28;45352;-78
2022/09/12 04:26:58;;;;;;;1.50;1.40;;;19.30;57.30;;;;;;5069534;28;45285;-79
2022/09/12 04:29:25;;;;;;;1.30;1.20;;;19.30;57.00;;;;;;5069636;28;45161;-79
2022/09/12 04:31:52;;;;;;;3.15;1.35;;;19.30;57.00;;;;;;5069016;28;45185;-78
2022/09/12 04:34:20;;;;;;;1.98;1.20;;;19.30;57.00;;;;;;5069480;28;45364;-79
2022/09/12 04:36:46;;;;;;;2.05;1.60;;;19.30;56.90;;;;;;5069223;28;46429;-79
2022/09/12 04:39:13;;;;;;;3.65;1.60;;;19.30;57.00;;;;;;5069477;28;45199;-80
2022/09/12 04:41:40;;;;;;;2.28;1.50;;;19.30;56.90;;;;;;5067494;28;45317;-78
2022/09/12 04:44:08;;;;;;;3.83;1.75;;;19.30;56.90;;;;;;5069598;28;45188;-81
2022/09/12 04:46:36;;;;;;;3.95;2.15;;;19.40;57.00;;;;;;5070056;28;45465;-80
2022/09/12 04:49:03;;;;;;;2.70;2.08;;;19.30;57.20;;;;;;5069235;28;45261;-81
2022/09/12 04:51:32;;;;;;;3.15;2.00;;;19.30;57.50;;;;;;5069780;28;45182;-81
2022/09/12 04:54:00;;;;;;;2.10;1.85;;;19.20;57.40;;;;;;5069723;28;45255;-78
2022/09/12 04:56:27;;;;;;;2.42;1.80;;;19.20;57.50;;;;;;5069325;28;46989;-79
2022/09/12 04:58:54;;;;;;;2.80;1.75;;;19.20;57.50;;;;;;5069217;28;45135;-79
2022/09/12 05:01:21;;;;;;;3.67;1.85;;;19.20;57.50;;;;;;5069258;28;45123;-79
2022/09/12 05:03:50;;;;;;;2.25;1.85;;;19.10;57.50;;;;;;5069291;28;45319;-79
2022/09/12 05:06:18;;;;;;;2.58;1.75;;;19.10;57.70;;;;;;5068883;28;45252;-78
2022/09/12 05:08:46;;;;;;;2.42;1.58;;;19.10;57.80;;;;;;5068907;28;45206;-77
2022/09/12 05:11:13;;;;;;;2.20;1.90;;;19.10;57.90;;;;;;5069317;28;45283;-80
2022/09/12 05:13:40;;;;;;;2.38;2.17;;;19.10;58.00;;;;;;5069395;28;45295;-78
2022/09/12 05:16:08;;;;;;;2.55;1.77;;;19.00;57.90;;;;;;5068505;28;46415;-80
2022/09/12 05:18:35;;;;;;;2.03;1.60;;;19.00;58.10;;;;;;5068021;28;45249;-81
2022/09/12 05:21:03;;;;;;;2.15;1.42;;;19.00;58.10;;;;;;5066719;28;45261;-80
2022/09/12 05:23:30;;;;;;;1.45;1.35;;;19.00;58.20;;;;;;5066525;28;45295;-81
2022/09/12 05:25:59;;;;;;;1.63;1.50;;;19.00;58.00;;;;;;5068583;28;46825;-80
2022/09/12 05:28:29;;;;;;;1.67;1.55;;;19.00;58.30;;;;;;5068737;28;45194;-81
2022/09/12 05:31:00;;;;;;;3.13;2.00;;;19.10;58.20;;;;;;5068746;28;45249;-80
2022/09/12 05:33:27;;;;;;;3.15;2.17;;;19.10;58.10;;;;;;5068794;28;45182;-80
2022/09/12 05:35:54;;;;;;;2.38;1.95;;;19.10;58.30;;;;;;5067674;28;46658;-79
2022/09/12 05:38:23;;;;;;;6.95;1.95;;;19.10;58.00;;;;;;5068373;28;45253;-79
2022/09/12 05:40:49;;;;;;;2.30;2.10;;;19.00;58.10;;;;;;5068865;28;45216;-80
2022/09/12 05:43:19;;;;;;;2.55;1.90;;;19.00;58.00;;;;;;5068728;28;45262;-80
2022/09/12 05:45:45;;;;;;;2.50;1.92;;;19.10;58.20;;;;;;5068405;28;46376;-79
2022/09/12 05:48:12;;;;;;;3.20;1.70;;;19.10;58.30;;;;;;5068112;28;45350;-80
2022/09/12 05:50:41;;;;;;;2.67;1.90;;;19.10;58.10;;;;;;5068577;28;45319;-81
2022/09/12 05:53:08;;;;;;;2.15;1.60;;;19.10;58.00;;;;;;5068659;28;45457;-80
2022/09/12 05:55:35;;;;;;;3.15;1.60;;;19.10;58.10;;;;;;5068275;28;45463;-80
2022/09/12 05:58:02;;;;;;;1.70;1.45;;;19.10;57.90;;;;;;5068034;28;45430;-80
2022/09/12 06:00:30;;;;;;;2.05;1.63;;;19.10;58.10;;;;;;5068420;28;45192;-81
2022/09/12 06:02:57;;;;;;;4.07;1.60;;;19.10;58.20;;;;;;5068403;28;45178;-79
2022/09/12 06:05:24;;;;;;;2.72;1.42;;;19.10;58.00;;;;;;5067727;28;46826;-79
2022/09/12 06:07:50;;;;;;;1.77;1.50;;;19.10;57.60;;;;;;5067161;28;45348;-81
2022/09/12 06:10:17;;;;;;;1.73;1.40;;;19.20;58.10;;;;;;5067779;28;45374;-80
2022/09/12 06:12:44;;;;;;;2.05;1.75;;;19.20;58.60;;;;;;5068324;28;45431;-81
2022/09/12 06:15:11;;;;;;;2.80;2.13;;;19.20;58.50;;;;;;5067650;28;47599;-80
2022/09/12 06:17:39;;;;;;;3.20;1.80;;;19.20;58.90;;;;;;5067600;28;45204;-80
2022/09/12 06:20:07;;;;;;;2.47;1.83;;;19.20;59.30;;;;;;5066032;28;45401;-78
2022/09/12 06:22:34;;;;;;;2.35;1.55;;;19.20;58.70;;;;;;5068128;28;45455;-78
2022/09/12 06:25:01;;;;;;;1.88;1.70;;;19.20;58.90;;;;;;5067428;28;47541;-76
2022/09/12 06:27:28;;;;;;;2.50;1.65;;;19.20;58.20;;;;;;5065922;28;45211;-78
2022/09/12 06:29:55;;;;;;;1.63;1.35;;;19.20;57.80;;;;;;5067978;28;45256;-79
2022/09/12 06:32:22;;;;;;;2.25;1.40;;;19.20;57.50;;;;;;5067853;28;45454;-80
2022/09/12 06:34:50;;;;;;;1.65;1.38;;;19.30;57.70;;;;;;5067457;28;45319;-79
2022/09/12 06:37:17;;;;;;;1.30;1.20;;;19.30;57.60;;;;;;5067249;28;45352;-80
2022/09/12 06:39:44;;;;;;;2.00;1.20;;;19.30;57.00;;;;;;5065886;28;45316;-78
2022/09/12 06:42:12;;;;;;;1.50;1.40;;;19.40;56.70;;;;;;5067612;28;45372;-78
2022/09/12 06:44:41;;;;;;;2.38;1.40;;;19.40;56.70;;;;;;5067114;28;46680;-78
2022/09/12 06:47:08;;;;;;;1.48;1.30;;;19.40;57.40;;;;;;5065999;28;45187;-77
2022/09/12 06:49:35;;;;;;;1.80;1.70;;;19.40;56.70;;;;;;5067272;28;45138;-79
2022/09/12 06:52:03;;;;;;;1.52;1.40;;;19.40;57.10;;;;;;5062704;28;45524;-79
2022/09/12 06:54:30;;;;;;;1.70;1.40;;;19.50;56.80;;;;;;5063599;28;45498;-79
2022/09/12 06:56:57;;;;;;;1.70;1.60;;;19.50;56.40;;;;;;5054561;28;45508;-76
2022/09/12 06:59:24;;;;;;;2.00;1.80;;;19.60;57.00;;;;;;5065910;28;45208;-78
2022/09/12 07:01:50;;;;;;;2.53;1.92;;;19.50;57.50;;;;;;5062637;28;45467;-82
2022/09/12 07:04:18;;;;;;;2.70;1.67;;;19.50;57.70;;;;;;5064664;28;46702;-83
2022/09/12 07:06:45;;;;;;;3.63;2.58;;;19.50;57.30;;;;;;5056378;28;45574;-78
2022/09/12 07:09:15;;;;;;;3.70;1.90;;;19.50;57.60;;;;;;5054733;28;45380;-80
2022/09/12 07:11:42;;;;;;;2.05;1.88;;;19.50;57.70;;;;;;5064162;28;46431;-78
2022/09/12 07:14:09;;;;;;;5.60;3.00;;;19.60;57.70;;;;;;5058504;28;45681;-76
2022/09/12 07:16:36;;;;;;;1.90;1.77;;;19.60;58.60;;;;;;5061531;28;45533;-76
2022/09/12 07:19:04;;;;;;;2.17;1.55;;;19.60;57.10;;;;;;5067867;28;45368;-77
2022/09/12 07:21:31;;;;;;;3.03;1.80;;;19.70;56.60;;;;;;5063120;28;45539;-78
2022/09/12 07:23:58;;;;;;;2.58;1.80;;;19.80;56.80;;;;;;5061247;28;46612;-85
2022/09/12 07:26:27;;;;;;;6.85;2.40;;;19.80;56.30;;;;;;5061615;28;45363;-77
2022/09/12 07:28:55;;;;;;;3.85;2.25;;;19.80;56.70;;;;;;5063654;28;45479;-77
2022/09/12 07:31:22;;;;;;;3.22;1.85;;;19.90;56.30;;;;;;5063100;28;46010;-77
2022/09/12 07:33:50;;;;;;;3.17;1.88;;;19.90;56.00;;;;;;5052842;28;45642;-76
2022/09/12 07:36:18;;;;;;;3.03;2.03;;;19.90;56.00;;;;;;5054812;28;45412;-77
2022/09/12 07:38:45;;;;;;;5.35;2.92;;;19.90;56.90;;;;;;5069249;28;45296;-80
2022/09/12 07:41:12;;;;;;;2.90;2.60;;;20.00;57.60;;;;;;5051096;28;45649;-78
2022/09/12 07:43:40;;;;;;;2.97;2.65;;;19.90;57.90;;;;;;5059174;28;45543;-77
2022/09/12 07:46:07;;;;;;;3.45;2.63;;;19.90;57.80;;;;;;5058755;28;45590;-74
2022/09/12 07:48:34;;;;;;;4.15;3.00;;;19.90;58.10;;;;;;5065580;28;45460;-77
2022/09/12 07:51:02;;;;;;;4.18;2.10;;;19.80;59.00;;;;;;5069686;28;45307;-77
2022/09/12 07:53:31;;;;;;;3.42;2.35;;;19.80;57.90;;;;;;5063407;28;46977;-77
2022/09/12 07:55:58;;;;;;;4.20;2.67;;;19.90;57.40;;;;;;5060633;28;45530;-76
2022/09/12 07:58:25;;;;;;;3.88;2.80;;;19.90;57.80;;;;;;5065758;28;45399;-78
2022/09/12 08:00:53;;;;;;;4.15;2.50;;;19.90;57.90;;;;;;5064158;28;45671;-79
2022/09/12 08:03:20;;;;;;;3.55;2.40;;;19.90;57.90;;;;;;5061798;28;45487;-78
2022/09/12 08:05:47;;;;;;;3.22;2.25;;;19.90;58.50;;;;;;5065193;28;45311;-78
2022/09/12 08:08:14;;;;;;;3.83;2.45;;;20.00;58.20;;;;;;5066995;28;45360;-78
2022/09/12 08:10:41;;;;;;;3.03;2.72;;;20.00;58.20;;;;;;5067131;28;45403;-79
2022/09/12 08:13:08;;;;;;;2.22;2.00;;;20.00;58.40;;;;;;5067085;28;48000;-79
2022/09/12 08:15:35;;;;;;;2.85;2.10;;;20.00;58.40;;;;;;5065490;28;45417;-78
2022/09/12 08:18:04;;;;;;;3.92;2.50;;;20.10;58.50;;;;;;5066924;28;45427;-80
2022/09/12 08:20:30;;;;;;;2.63;2.20;;;20.10;58.50;;;;;;5066953;28;45331;-76
2022/09/12 08:22:57;;;;;;;2.88;2.35;;;20.10;59.40;;;;;;5064764;28;45710;-78
2022/09/12 08:25:24;;;;;;;2.80;2.17;;;20.10;59.20;;;;;;5053012;28;44837;-79
2022/09/12 08:27:51;;;;;;;2.35;2.15;;;20.10;58.70;;;;;;5066077;28;45390;-78
2022/09/12 08:30:18;;;;;;;2.40;1.73;;;20.10;58.40;;;;;;5062992;28;45301;-76
2022/09/12 08:32:46;;;;;;;3.47;1.75;;;20.20;57.80;;;;;;5062815;28;46647;-78
2022/09/12 08:35:14;;;;;;;3.38;1.80;;;20.30;57.90;;;;;;5055839;28;45399;-77
2022/09/12 08:37:41;;;;;;;3.22;1.58;;;20.30;58.10;;;;;;5063207;28;45612;-71
2022/09/12 08:40:10;;;;;;;2.13;1.90;;;20.40;57.70;;;;;;5053226;28;45504;-70
2022/09/12 08:42:49;;;;;;;4.28;2.20;;;20.40;58.10;;;;;;5066851;28;47081;-72
2022/09/12 08:45:18;;;;;;;3.17;2.03;;;20.40;58.60;;;;;;5061647;28;45356;-71
2022/09/12 08:47:45;;;;;;;3.47;2.35;;;20.40;58.50;;;;;;5061181;28;45530;-71
2022/09/12 08:50:18;;;;;;;2.47;2.28;;;20.40;58.80;;;;;;5062761;28;45404;-71
2022/09/12 08:52:50;;;;;;;3.60;2.08;;;20.50;58.40;;;;;;5060504;28;46388;-71
2022/09/12 08:55:33;;;;;;;1.90;1.70;;;20.50;58.40;;;;;;5062706;28;45455;-73
2022/09/12 08:58:00;;;;;;;4.10;2.10;;;20.50;58.10;;;;;;5056082;28;45361;-73
2022/09/12 09:00:31;;;;;;;2.22;1.83;;;20.60;58.70;;;;;;5062452;28;45307;-72
2022/09/12 09:03:14;;;;;;;2.88;1.80;;;20.60;58.30;;;;;;5060551;28;45600;-70
2022/09/12 09:05:46;;;;;;;3.63;1.95;;;20.60;57.90;;;;;;5061293;28;45404;-80
2022/09/12 09:08:34;;;;;;;2.05;1.85;;;20.60;58.10;;;;;;5061079;28;45494;-72
2022/09/12 09:11:06;;;;;;;3.67;1.77;;;20.70;57.90;;;;;;5063184;28;45357;-73
2022/09/12 09:16:25;;;;;;;1.60;1.50;;;20.70;58.60;;;;;;5053436;28;45328;-74
2022/09/12 09:18:52;;;;;;;1.80;1.70;;;20.70;58.60;;;;;;5075294;28;45242;-74
2022/09/12 09:21:23;;;;;;;2.83;1.85;;;20.80;58.10;;;;;;5066170;28;45413;-74
2022/09/12 09:23:53;;;;;;;3.30;2.20;;;20.80;58.40;;;;;;5066489;28;45612;-73
2022/09/12 09:26:25;;;;;;;2.30;2.10;;;20.90;58.90;;;;;;5068001;28;45262;-75
2022/09/12 09:28:54;;;;;;;1.52;1.40;;;20.90;59.00;;;;;;5070410;28;45399;-74
2022/09/12 09:31:21;;;;;;;1.88;1.65;;;21.00;58.20;;;;;;5069861;28;45244;-74
2022/09/12 09:33:49;;;;;;;1.65;1.42;;;21.00;58.70;;;;;;5069452;28;47325;-74
2022/09/12 09:36:19;;;;;;;2.47;1.70;;;21.00;58.30;;;;;;5069064;28;45510;-73
2022/09/12 09:38:49;;;;;;;3.92;1.75;;;21.10;58.30;;;;;;5071156;28;45219;-74
2022/09/12 09:41:46;;;;;;;3.88;1.70;;;21.10;58.20;;;;;;5067754;28;45327;-74
2022/09/12 09:44:13;;;;;;;1.77;1.60;;;21.20;58.30;;;;;;5069979;28;45841;-74
2022/09/12 09:46:40;;;;;;;3.08;1.70;;;21.20;58.80;;;;;;5070429;28;45217;-73
2022/09/12 09:49:06;;;;;;;3.35;1.50;;;21.30;58.80;;;;;;5067390;28;45201;-74
2022/09/12 09:51:34;;;;;;;1.75;1.42;;;21.30;58.10;;;;;;5068262;28;45551;-76
2022/09/12 09:54:05;;;;;;;2.45;1.50;;;21.30;57.80;;;;;;5066995;28;45448;-74
2022/09/12 09:56:33;;;;;;;2.20;1.55;;;21.40;57.70;;;;;;5053003;28;45212;-75
2022/09/12 09:59:10;;;;;;;1.48;1.27;;;21.50;57.70;;;;;;5049201;28;45359;-75
2022/09/12 10:01:37;;;;;;;3.53;1.60;;;21.50;57.10;;;;;;5049540;28;45646;-75
2022/09/12 10:04:04;;;;;;;3.03;2.13;;;21.60;57.60;;;;;;5049789;28;45751;-76
2022/09/12 10:06:33;;;;;;;1.85;1.70;;;21.60;58.40;;;;;;5050054;28;45197;-76
2022/09/12 10:09:07;;;;;;;2.35;1.92;;;21.70;57.80;;;;;;5050364;28;45246;-73
2022/09/12 10:11:34;;;;;;;5.30;2.05;;;21.80;57.80;;;;;;5049986;28;45325;-73
2022/09/12 10:14:01;;;;;;;4.90;2.70;;;21.80;58.10;;;;;;5046786;28;46273;-73
2022/09/12 10:16:29;;;;;;;2.08;1.90;;;21.90;58.00;;;;;;5048640;28;45300;-73
2022/09/12 10:18:57;;;;;;;2.88;2.40;;;21.90;57.10;;;;;;5048790;28;45197;-74
2022/09/12 10:21:30;;;;;;;3.08;2.22;;;21.90;57.00;;;;;;5049302;28;45254;-73
2022/09/12 10:24:03;;;;;;;7.47;3.35;;;22.00;56.80;;;;;;5050508;28;47525;-73
2022/09/12 10:26:36;;;;;;;3.85;2.33;;;22.00;57.40;;;;;;5069192;28;45208;-73
2022/09/12 10:29:11;;;;;;;3.13;2.47;;;22.10;57.10;;;;;;5069421;28;45322;-73
2022/09/12 10:31:44;;;;;;;9.23;2.35;;;22.20;57.10;;;;;;5066836;28;45301;-70
2022/09/12 10:34:20;;;;;;;2.70;2.20;;;22.20;56.70;;;;;;5068715;28;45622;-71
2022/09/12 10:36:47;;;;;;;4.80;2.53;;;22.30;57.00;;;;;;5062618;28;45432;-71
2022/09/12 10:39:17;;;;;;;2.30;2.10;;;22.40;56.80;;;;;;5067466;28;45227;-72
2022/09/12 10:41:46;;;;;;;5.03;2.67;;;22.50;56.80;;;;;;5068142;28;45230;-70
2022/09/12 10:44:15;;;;;;;5.18;3.28;;;22.70;57.10;;;;;;5068582;28;46666;-72
2022/09/12 10:46:42;;;;;;;6.13;3.13;;;22.80;56.30;;;;;;5068419;28;45191;-72
2022/09/12 10:49:21;;;;;;;3.25;2.80;;;22.90;56.10;;;;;;5068400;28;45217;-72
2022/09/12 10:51:48;;;;;;;3.13;2.10;;;23.00;55.60;;;;;;5059139;28;45563;-72
2022/09/12 10:54:16;;;;;;;4.43;2.53;;;23.10;55.30;;;;;;5057134;28;46175;-71
2022/09/12 10:56:50;;;;;;;3.08;2.40;;;23.10;55.20;;;;;;5067824;28;45262;-71
2022/09/12 10:59:23;;;;;;;3.22;2.28;;;23.20;55.20;;;;;;5065501;28;45177;-71
2022/09/12 11:01:50;;;;;;;3.13;2.17;;;23.30;55.30;;;;;;5067986;28;45273;-72
2022/09/12 11:04:40;;;;;;;3.53;2.25;;;23.30;55.10;;;;;;5067248;28;45535;-72
2022/09/12 11:07:22;;;;;;;4.88;2.50;;;23.40;55.30;;;;;;5064274;28;45346;-71
2022/09/12 11:09:51;;;;;;;3.17;2.47;;;23.50;55.10;;;;;;5067596;28;45317;-72
2022/09/12 11:12:22;;;;;;;5.90;2.40;;;23.60;55.10;;;;;;5067756;28;45328;-71
2022/09/12 11:14:58;;;;;;;5.78;2.40;;;23.70;54.90;;;;;;5069000;28;46649;-72
2022/09/12 11:17:35;;;;;;;2.75;2.20;;;23.80;54.80;;;;;;5068258;28;45308;-71
2022/09/12 11:20:29;;;;;;;2.53;2.15;;;23.80;54.70;;;;;;5065460;28;45474;-72
2022/09/12 11:23:16;;;;;;;2.45;2.13;;;23.90;54.70;;;;;;5068158;28;45312;-71
2022/09/12 11:25:45;;;;;;;3.80;2.10;;;24.00;55.40;;;;;;5063602;28;47616;-71
2022/09/12 11:28:28;;;;;;;4.32;1.80;;;24.10;54.70;;;;;;5067302;28;45382;-71
2022/09/12 11:31:18;;;;;;;3.95;2.25;;;24.20;54.40;;;;;;5067406;28;45201;-71
2022/09/12 11:33:46;;;;;;;3.78;1.90;;;24.20;54.90;;;;;;5063282;28;45315;-71
2022/09/12 11:36:20;;;;;;;2.55;1.70;;;24.30;54.00;;;;;;5060365;28;45486;-71
2022/09/12 11:38:57;;;;;;;5.47;1.90;;;24.40;53.90;;;;;;5066671;28;45309;-71
2022/09/12 11:41:27;;;;;;;4.57;1.70;;;24.50;53.90;;;;;;5066671;28;45330;-71
2022/09/12 11:43:57;;;;;;;2.00;1.50;;;24.50;53.50;;;;;;5066559;28;45237;-70
2022/09/12 11:46:28;;;;;;;2.00;1.80;;;24.60;53.20;;;;;;5066380;28;46350;-70
2022/09/12 11:48:57;;;;;;;1.90;1.70;;;24.60;53.00;;;;;;5065823;28;45409;-70
2022/09/12 11:51:25;;;;;;;3.40;1.63;;;24.60;52.50;;;;;;5063215;28;45496;-71
2022/09/12 11:54:05;;;;;;;2.00;1.40;;;24.70;51.80;;;;;;5066294;28;44818;-70
2022/09/12 11:56:32;;;;;;;2.33;1.60;;;24.70;51.60;;;;;;5066119;28;46482;-70
2022/09/12 11:59:03;;;;;;;2.92;1.55;;;24.80;51.70;;;;;;5065224;28;46000;-70
2022/09/12 12:01:33;;;;;;;1.63;1.52;;;24.90;51.60;;;;;;5065433;28;45406;-70
2022/09/12 12:04:00;;;;;;;2.15;1.30;;;24.90;51.10;;;;;;5065832;28;45243;-70
2022/09/12 12:06:30;;;;;;;1.80;1.40;;;25.00;51.30;;;;;;5065091;28;46950;-69
2022/09/12 12:08:56;;;;;;;2.50;1.50;;;25.00;51.00;;;;;;5065214;28;45422;-70
2022/09/12 12:11:29;;;;;;;2.78;1.45;;;25.10;50.70;;;;;;5062610;28;45345;-69
2022/09/12 12:13:57;;;;;;;1.63;1.23;;;25.20;50.50;;;;;;5064834;28;45383;-70
2022/09/12 12:16:26;;;;;;;1.40;1.30;;;25.20;50.10;;;;;;5064702;28;45487;-70
2022/09/12 12:18:54;;;;;;;1.58;1.40;;;25.20;50.10;;;;;;5063530;28;45142;-69
2022/09/12 12:21:36;;;;;;;1.52;1.33;;;25.30;50.20;;;;;;5060354;28;45340;-70
2022/09/12 12:24:10;;;;;;;2.85;1.35;;;25.40;50.50;;;;;;5058947;28;45232;-70
2022/09/12 12:26:56;;;;;;;2.40;1.65;;;25.40;51.10;;;;;;5064952;28;46377;-70
2022/09/12 12:29:42;;;;;;;1.80;1.38;;;25.50;51.10;;;;;;5064797;28;45171;-70
2022/09/12 12:32:26;;;;;;;2.63;2.13;;;25.50;50.80;;;;;;5064971;28;45194;-69
2022/09/12 12:35:02;;;;;;;2.47;1.70;;;25.60;51.60;;;;;;5061771;28;45246;-70
2022/09/12 12:37:51;;;;;;;2.63;1.65;;;25.60;51.10;;;;;;5064845;28;46668;-70
2022/09/12 12:40:22;;;;;;;6.07;1.73;;;25.70;50.60;;;;;;5039637;28;45539;-69
2022/09/12 12:43:03;;;;;;;2.15;1.48;;;25.80;49.60;;;;;;5062626;28;45459;-69
2022/09/12 12:46:07;;;;;;;1.58;1.48;;;25.90;48.60;;;;;;5067731;28;45213;-70
2022/09/12 12:49:09;;;;;;;1.33;1.20;;;25.90;48.40;;;;;;5068132;28;47291;-69
2022/09/12 12:51:52;;;;;;;1.77;1.27;;;26.00;47.70;;;;;;5068038;28;45432;-70
2022/09/12 12:54:53;;;;;;;2.05;1.30;;;26.10;48.60;;;;;;5063342;28;45209;-71
2022/09/12 12:57:39;;;;;;;1.17;1.10;;;26.10;47.10;;;;;;5068739;28;45339;-70
2022/09/12 13:00:11;;;;;;;1.55;1.15;;;26.10;47.20;;;;;;5066436;28;46334;-70
2022/09/12 13:02:39;;;;;;;1.00;1.00;;;26.10;46.40;;;;;;5050687;28;45365;-70
2022/09/12 13:05:17;;;;;;;1.30;1.20;;;26.20;45.90;;;;;;5068114;28;45202;-70